sensor_id;sensor_type;location;lat;lon;timestamp;temperature;humidity
16198;DHT22;8206;51.440;6.914;2022-09-20T00:00:14;8.80;99.90
16198;DHT22;8206;51.440;6.914;2022-09-20T00:02:41;9.00;99.90
16198;DHT22;8206;51.440;6.914;2022-09-20T00:05:07;9.00;99.90
16198;DHT22;8206;51.440;6.914;2022-09-20T00:07:34;9.20;99.90
16198;DHT22;8206;51.440;6.914;2022-09-20T00:10:03;9.30;99.90
16198;DHT22;8206;51.440;6.914;2022-09-20T00:12:30;9.40;99.90
16198;DHT22;8206;51.440;6.914;2022-09-20T00:14:57;9.40;99.90
16198;DHT22;8206;51.440;6.914;2022-09-20T00:17:23;9.40;99.90
16198;DHT22;8206;51.440;6.914;2022-09-20T00:19:50;9.40;99.90
16198;DHT22;8206;51.440;6.914;2022-09-20T00:22:17;9.40;99.90
16198;DHT22;8206;51.440;6.914;2022-09-20T00:24:44;9.40;99.90
16198;DHT22;8206;51.440;6.914;2022-09-20T00:27:13;9.20;99.90
16198;DHT22;8206;51.440;6.914;2022-09-20T00:29:40;9.10;99.90
16198;DHT22;8206;51.440;6.914;2022-09-20T00:32:06;9.00;99.90
16198;DHT22;8206;51.440;6.914;2022-09-20T00:34:33;8.90;99.90
16198;DHT22;8206;51.440;6.914;2022-09-20T00:37:17;8.80;99.90
16198;DHT22;8206;51.440;6.914;2022-09-20T00:39:44;8.70;99.90
16198;DHT22;8206;51.440;6.914;2022-09-20T00:42:14;8.70;99.90
16198;DHT22;8206;51.440;6.914;2022-09-20T00:44:54;8.60;99.90
16198;DHT22;8206;51.440;6.914;2022-09-20T00:47:28;8.60;99.90
16198;DHT22;8206;51.440;6.914;2022-09-20T00:50:00;8.60;99.90
16198;DHT22;8206;51.440;6.914;2022-09-20T00:52:29;8.50;99.90
16198;DHT22;8206;51.440;6.914;2022-09-20T00:54:57;8.50;99.90
16198;DHT22;8206;51.440;6.914;2022-09-20T00:57:26;8.40;99.90
16198;DHT22;8206;51.440;6.914;2022-09-20T00:59:53;8.40;99.90
16198;DHT22;8206;51.440;6.914;2022-09-20T01:02:24;8.30;99.90
16198;DHT22;8206;51.440;6.914;2022-09-20T01:04:51;8.30;99.90
16198;DHT22;8206;51.440;6.914;2022-09-20T01:07:20;8.20;99.90
16198;DHT22;8206;51.440;6.914;2022-09-20T01:09:48;8.20;99.90
16198;DHT22;8206;51.440;6.914;2022-09-20T01:12:17;8.20;99.90
16198;DHT22;8206;51.440;6.914;2022-09-20T01:14:49;8.10;99.90
16198;DHT22;8206;51.440;6.914;2022-09-20T01:17:17;8.10;99.90
16198;DHT22;8206;51.440;6.914;2022-09-20T01:19:52;8.10;99.90
16198;DHT22;8206;51.440;6.914;2022-09-20T01:22:25;8.10;99.90
16198;DHT22;8206;51.440;6.914;2022-09-20T01:24:59;8.10;99.90
16198;DHT22;8206;51.440;6.914;2022-09-20T01:27:41;8.10;99.90
16198;DHT22;8206;51.440;6.914;2022-09-20T01:30:11;8.10;99.90
16198;DHT22;8206;51.440;6.914;2022-09-20T01:32:47;8.00;99.90
16198;DHT22;8206;51.440;6.914;2022-09-20T01:35:18;8.00;99.90
16198;DHT22;8206;51.440;6.914;2022-09-20T01:37:58;8.00;99.90
16198;DHT22;8206;51.440;6.914;2022-09-20T01:40:32;7.90;99.90
16198;DHT22;8206;51.440;6.914;2022-09-20T01:43:09;7.90;99.90
16198;DHT22;8206;51.440;6.914;2022-09-20T01:45:43;7.80;99.90
16198;DHT22;8206;51.440;6.914;2022-09-20T01:48:13;7.80;99.90
16198;DHT22;8206;51.440;6.914;2022-09-20T01:51:00;7.80;99.90
16198;DHT22;8206;51.440;6.914;2022-09-20T01:54:08;7.80;99.90
16198;DHT22;8206;51.440;6.914;2022-09-20T01:56:53;7.80;99.90
16198;DHT22;8206;51.440;6.914;2022-09-20T01:59:46;7.90;99.90
16198;DHT22;8206;51.440;6.914;2022-09-20T02:02:39;8.00;99.90
16198;DHT22;8206;51.440;6.914;2022-09-20T02:05:33;8.00;99.90
16198;DHT22;8206;51.440;6.914;2022-09-20T02:11:13;8.10;99.90
16198;DHT22;8206;51.440;6.914;2022-09-20T02:14:00;8.10;99.90
16198;DHT22;8206;51.440;6.914;2022-09-20T02:16:43;8.10;99.90
16198;DHT22;8206;51.440;6.914;2022-09-20T02:19:21;8.10;99.90
16198;DHT22;8206;51.440;6.914;2022-09-20T02:22:02;8.10;99.90
16198;DHT22;8206;51.440;6.914;2022-09-20T02:24:39;8.10;99.90
16198;DHT22;8206;51.440;6.914;2022-09-20T02:27:17;8.10;99.90
16198;DHT22;8206;51.440;6.914;2022-09-20T02:30:00;8.00;99.90
16198;DHT22;8206;51.440;6.914;2022-09-20T02:32:45;8.00;99.90
16198;DHT22;8206;51.440;6.914;2022-09-20T02:35:28;8.00;99.90
16198;DHT22;8206;51.440;6.914;2022-09-20T02:38:07;8.00;99.90
16198;DHT22;8206;51.440;6.914;2022-09-20T02:40:51;8.00;99.90
16198;DHT22;8206;51.440;6.914;2022-09-20T02:43:26;8.00;99.90
16198;DHT22;8206;51.440;6.914;2022-09-20T02:46:02;8.00;99.90
16198;DHT22;8206;51.440;6.914;2022-09-20T02:48:37;8.00;99.90
16198;DHT22;8206;51.440;6.914;2022-09-20T02:51:11;8.00;99.90
16198;DHT22;8206;51.440;6.914;2022-09-20T02:53:43;8.00;99.90
16198;DHT22;8206;51.440;6.914;2022-09-20T02:56:17;8.00;99.90
16198;DHT22;8206;51.440;6.914;2022-09-20T02:58:51;8.10;99.90
16198;DHT22;8206;51.440;6.914;2022-09-20T03:01:30;8.10;99.90
16198;DHT22;8206;51.440;6.914;2022-09-20T03:04:10;8.10;99.90
16198;DHT22;8206;51.440;6.914;2022-09-20T03:06:42;8.20;99.90
16198;DHT22;8206;51.440;6.914;2022-09-20T03:09:17;8.30;99.90
16198;DHT22;8206;51.440;6.914;2022-09-20T03:11:50;8.30;99.90
16198;DHT22;8206;51.440;6.914;2022-09-20T03:14:25;8.30;99.90
16198;DHT22;8206;51.440;6.914;2022-09-20T03:17:01;8.40;99.90
16198;DHT22;8206;51.440;6.914;2022-09-20T03:19:42;8.50;99.90
16198;DHT22;8206;51.440;6.914;2022-09-20T03:22:20;8.50;99.90
16198;DHT22;8206;51.440;6.914;2022-09-20T03:25:00;8.50;99.90
16198;DHT22;8206;51.440;6.914;2022-09-20T03:27:37;8.60;99.90
16198;DHT22;8206;51.440;6.914;2022-09-20T03:30:22;8.60;99.90
16198;DHT22;8206;51.440;6.914;2022-09-20T03:32:56;8.60;99.90
16198;DHT22;8206;51.440;6.914;2022-09-20T03:35:45;8.60;99.90
16198;DHT22;8206;51.440;6.914;2022-09-20T03:38:27;8.70;99.90
16198;DHT22;8206;51.440;6.914;2022-09-20T03:41:13;8.70;99.90
16198;DHT22;8206;51.440;6.914;2022-09-20T03:43:57;8.80;99.90
16198;DHT22;8206;51.440;6.914;2022-09-20T03:46:28;8.80;99.90
16198;DHT22;8206;51.440;6.914;2022-09-20T03:49:07;8.80;99.90
16198;DHT22;8206;51.440;6.914;2022-09-20T03:51:46;8.90;99.90
16198;DHT22;8206;51.440;6.914;2022-09-20T03:54:30;9.00;99.90
16198;DHT22;8206;51.440;6.914;2022-09-20T03:57:22;9.00;99.90
16198;DHT22;8206;51.440;6.914;2022-09-20T04:00:06;9.00;99.90
16198;DHT22;8206;51.440;6.914;2022-09-20T04:05:45;9.10;99.90
16198;DHT22;8206;51.440;6.914;2022-09-20T04:08:26;9.20;99.90
16198;DHT22;8206;51.440;6.914;2022-09-20T04:11:02;9.20;99.90
16198;DHT22;8206;51.440;6.914;2022-09-20T04:13:35;9.30;99.90
16198;DHT22;8206;51.440;6.914;2022-09-20T04:16:21;9.30;99.90
16198;DHT22;8206;51.440;6.914;2022-09-20T04:18:52;9.30;99.90
16198;DHT22;8206;51.440;6.914;2022-09-20T04:21:27;9.40;99.90
16198;DHT22;8206;51.440;6.914;2022-09-20T04:24:02;9.40;99.90
16198;DHT22;8206;51.440;6.914;2022-09-20T04:26:31;9.40;99.90
16198;DHT22;8206;51.440;6.914;2022-09-20T04:29:04;9.50;99.90
16198;DHT22;8206;51.440;6.914;2022-09-20T04:31:40;9.50;99.90
16198;DHT22;8206;51.440;6.914;2022-09-20T04:34:13;9.60;99.90
16198;DHT22;8206;51.440;6.914;2022-09-20T04:36:56;9.60;99.90
16198;DHT22;8206;51.440;6.914;2022-09-20T04:39:35;9.70;99.90
16198;DHT22;8206;51.440;6.914;2022-09-20T04:42:29;9.70;99.90
16198;DHT22;8206;51.440;6.914;2022-09-20T04:45:16;9.70;99.90
16198;DHT22;8206;51.440;6.914;2022-09-20T04:57:30;9.80;99.90
16198;DHT22;8206;51.440;6.914;2022-09-20T05:00:05;9.80;99.90
16198;DHT22;8206;51.440;6.914;2022-09-20T05:05:49;9.80;99.90
16198;DHT22;8206;51.440;6.914;2022-09-20T05:11:48;9.90;99.90
16198;DHT22;8206;51.440;6.914;2022-09-20T05:14:42;9.90;99.90
16198;DHT22;8206;51.440;6.914;2022-09-20T05:17:23;9.90;99.90
16198;DHT22;8206;51.440;6.914;2022-09-20T05:20:12;9.90;99.90
16198;DHT22;8206;51.440;6.914;2022-09-20T05:23:07;9.90;99.90
16198;DHT22;8206;51.440;6.914;2022-09-20T05:25:54;9.90;99.90
16198;DHT22;8206;51.440;6.914;2022-09-20T05:28:26;9.90;99.90
16198;DHT22;8206;51.440;6.914;2022-09-20T05:31:00;9.90;99.90
16198;DHT22;8206;51.440;6.914;2022-09-20T05:33:38;9.90;99.90
16198;DHT22;8206;51.440;6.914;2022-09-20T05:36:13;10.00;99.90
16198;DHT22;8206;51.440;6.914;2022-09-20T05:38:47;10.00;99.90
16198;DHT22;8206;51.440;6.914;2022-09-20T05:41:24;10.00;99.90
16198;DHT22;8206;51.440;6.914;2022-09-20T05:44:03;10.00;99.90
16198;DHT22;8206;51.440;6.914;2022-09-20T05:46:42;10.10;99.90
16198;DHT22;8206;51.440;6.914;2022-09-20T05:49:15;10.10;99.90
16198;DHT22;8206;51.440;6.914;2022-09-20T05:52:03;10.20;99.90
16198;DHT22;8206;51.440;6.914;2022-09-20T05:57:34;10.30;99.90
16198;DHT22;8206;51.440;6.914;2022-09-20T06:00:09;10.40;99.90
16198;DHT22;8206;51.440;6.914;2022-09-20T06:02:46;10.50;99.90
16198;DHT22;8206;51.440;6.914;2022-09-20T06:05:18;10.60;99.90
16198;DHT22;8206;51.440;6.914;2022-09-20T06:08:21;10.80;99.90
16198;DHT22;8206;51.440;6.914;2022-09-20T06:11:21;11.00;99.90
16198;DHT22;8206;51.440;6.914;2022-09-20T06:14:09;11.20;99.90
16198;DHT22;8206;51.440;6.914;2022-09-20T06:16:45;11.40;99.90
16198;DHT22;8206;51.440;6.914;2022-09-20T06:19:24;11.60;99.90
16198;DHT22;8206;51.440;6.914;2022-09-20T06:21:55;11.60;99.90
16198;DHT22;8206;51.440;6.914;2022-09-20T06:24:34;11.80;99.90
16198;DHT22;8206;51.440;6.914;2022-09-20T06:27:05;11.90;99.90
16198;DHT22;8206;51.440;6.914;2022-09-20T06:29:36;11.90;99.90
16198;DHT22;8206;51.440;6.914;2022-09-20T06:32:04;12.00;99.90
16198;DHT22;8206;51.440;6.914;2022-09-20T06:34:33;12.10;99.90
16198;DHT22;8206;51.440;6.914;2022-09-20T06:37:09;12.10;99.90
16198;DHT22;8206;51.440;6.914;2022-09-20T06:39:58;12.10;99.90
16198;DHT22;8206;51.440;6.914;2022-09-20T06:42:45;12.20;99.90
16198;DHT22;8206;51.440;6.914;2022-09-20T06:45:12;12.10;99.90
16198;DHT22;8206;51.440;6.914;2022-09-20T06:47:39;12.20;99.90
16198;DHT22;8206;51.440;6.914;2022-09-20T06:50:14;12.30;99.90
16198;DHT22;8206;51.440;6.914;2022-09-20T06:52:41;12.40;99.90
16198;DHT22;8206;51.440;6.914;2022-09-20T06:55:14;12.40;99.90
16198;DHT22;8206;51.440;6.914;2022-09-20T06:57:43;12.50;99.90
16198;DHT22;8206;51.440;6.914;2022-09-20T07:00:13;12.50;99.90
16198;DHT22;8206;51.440;6.914;2022-09-20T07:02:40;12.60;99.90
16198;DHT22;8206;51.440;6.914;2022-09-20T07:05:13;12.80;99.90
16198;DHT22;8206;51.440;6.914;2022-09-20T07:07:40;12.90;99.90
16198;DHT22;8206;51.440;6.914;2022-09-20T07:10:08;13.10;82.80
16198;DHT22;8206;51.440;6.914;2022-09-20T07:12:35;13.20;79.20
16198;DHT22;8206;51.440;6.914;2022-09-20T07:15:02;13.20;59.70
16198;DHT22;8206;51.440;6.914;2022-09-20T07:17:30;13.10;33.80
16198;DHT22;8206;51.440;6.914;2022-09-20T07:19:58;13.20;41.70
16198;DHT22;8206;51.440;6.914;2022-09-20T07:22:26;13.30;25.90
16198;DHT22;8206;51.440;6.914;2022-09-20T07:24:53;13.40;16.50
16198;DHT22;8206;51.440;6.914;2022-09-20T07:27:20;13.40;11.90
16198;DHT22;8206;51.440;6.914;2022-09-20T07:29:47;13.40;9.70
16198;DHT22;8206;51.440;6.914;2022-09-20T07:32:13;13.30;4.80
16198;DHT22;8206;51.440;6.914;2022-09-20T07:34:41;13.20;21.50
16198;DHT22;8206;51.440;6.914;2022-09-20T07:37:08;13.10;1.00
16198;DHT22;8206;51.440;6.914;2022-09-20T07:39:37;13.10;1.00
16198;DHT22;8206;51.440;6.914;2022-09-20T07:42:04;13.10;1.00
16198;DHT22;8206;51.440;6.914;2022-09-20T07:44:31;13.30;4.20
16198;DHT22;8206;51.440;6.914;2022-09-20T07:46:59;13.50;1.00
16198;DHT22;8206;51.440;6.914;2022-09-20T07:49:27;13.60;1.00
16198;DHT22;8206;51.440;6.914;2022-09-20T07:51:55;13.70;1.00
16198;DHT22;8206;51.440;6.914;2022-09-20T07:54:22;13.60;1.00
16198;DHT22;8206;51.440;6.914;2022-09-20T07:56:50;13.50;1.00
16198;DHT22;8206;51.440;6.914;2022-09-20T07:59:17;13.30;1.00
16198;DHT22;8206;51.440;6.914;2022-09-20T08:01:44;13.30;1.00
16198;DHT22;8206;51.440;6.914;2022-09-20T08:04:11;13.40;1.00
16198;DHT22;8206;51.440;6.914;2022-09-20T08:06:40;13.60;1.00
16198;DHT22;8206;51.440;6.914;2022-09-20T08:09:08;14.00;1.00
16198;DHT22;8206;51.440;6.914;2022-09-20T08:11:35;14.60;1.00
16198;DHT22;8206;51.440;6.914;2022-09-20T08:14:04;14.80;1.00
16198;DHT22;8206;51.440;6.914;2022-09-20T08:16:31;14.70;1.00
16198;DHT22;8206;51.440;6.914;2022-09-20T08:18:59;14.50;1.00
16198;DHT22;8206;51.440;6.914;2022-09-20T08:21:29;14.30;1.00
16198;DHT22;8206;51.440;6.914;2022-09-20T08:23:57;14.20;1.00
16198;DHT22;8206;51.440;6.914;2022-09-20T08:26:25;14.50;1.00
16198;DHT22;8206;51.440;6.914;2022-09-20T08:28:53;14.80;1.00
16198;DHT22;8206;51.440;6.914;2022-09-20T08:31:23;15.00;1.00
16198;DHT22;8206;51.440;6.914;2022-09-20T08:33:51;14.90;1.00
16198;DHT22;8206;51.440;6.914;2022-09-20T08:36:20;15.10;1.00
16198;DHT22;8206;51.440;6.914;2022-09-20T08:38:47;15.30;1.00
16198;DHT22;8206;51.440;6.914;2022-09-20T08:41:16;15.30;1.00
16198;DHT22;8206;51.440;6.914;2022-09-20T08:43:48;15.20;1.00
16198;DHT22;8206;51.440;6.914;2022-09-20T08:46:18;15.10;1.00
16198;DHT22;8206;51.440;6.914;2022-09-20T08:48:47;15.00;1.00
16198;DHT22;8206;51.440;6.914;2022-09-20T08:51:15;14.90;1.00
16198;DHT22;8206;51.440;6.914;2022-09-20T08:53:47;14.80;1.00
16198;DHT22;8206;51.440;6.914;2022-09-20T08:56:14;14.80;1.00
16198;DHT22;8206;51.440;6.914;2022-09-20T08:58:41;15.00;1.00
16198;DHT22;8206;51.440;6.914;2022-09-20T09:01:10;15.20;1.00
16198;DHT22;8206;51.440;6.914;2022-09-20T09:03:39;15.40;1.00
16198;DHT22;8206;51.440;6.914;2022-09-20T09:06:11;15.70;1.00
16198;DHT22;8206;51.440;6.914;2022-09-20T09:08:42;16.10;1.00
16198;DHT22;8206;51.440;6.914;2022-09-20T09:11:13;16.40;1.00
16198;DHT22;8206;51.440;6.914;2022-09-20T09:13:45;16.50;1.00
16198;DHT22;8206;51.440;6.914;2022-09-20T09:16:14;16.50;1.00
16198;DHT22;8206;51.440;6.914;2022-09-20T09:18:43;16.30;1.00
16198;DHT22;8206;51.440;6.914;2022-09-20T09:21:17;16.10;1.00
16198;DHT22;8206;51.440;6.914;2022-09-20T09:23:49;16.00;1.00
16198;DHT22;8206;51.440;6.914;2022-09-20T09:26:19;16.00;1.00
16198;DHT22;8206;51.440;6.914;2022-09-20T09:28:46;16.10;1.00
16198;DHT22;8206;51.440;6.914;2022-09-20T09:31:21;16.00;1.00
16198;DHT22;8206;51.440;6.914;2022-09-20T09:33:50;15.80;1.00
16198;DHT22;8206;51.440;6.914;2022-09-20T09:36:21;15.60;1.00
16198;DHT22;8206;51.440;6.914;2022-09-20T09:38:50;15.70;1.00
16198;DHT22;8206;51.440;6.914;2022-09-20T09:41:23;15.90;1.00
16198;DHT22;8206;51.440;6.914;2022-09-20T09:43:57;16.20;1.00
16198;DHT22;8206;51.440;6.914;2022-09-20T09:46:25;16.30;1.00
16198;DHT22;8206;51.440;6.914;2022-09-20T09:49:08;16.10;1.00
16198;DHT22;8206;51.440;6.914;2022-09-20T09:51:36;16.10;1.00
16198;DHT22;8206;51.440;6.914;2022-09-20T09:54:04;15.80;1.00
16198;DHT22;8206;51.440;6.914;2022-09-20T09:56:43;15.70;1.00
16198;DHT22;8206;51.440;6.914;2022-09-20T09:59:31;15.60;1.00
16198;DHT22;8206;51.440;6.914;2022-09-20T10:02:02;15.30;1.00
16198;DHT22;8206;51.440;6.914;2022-09-20T10:04:37;15.10;1.00
16198;DHT22;8206;51.440;6.914;2022-09-20T10:07:15;15.00;1.00
16198;DHT22;8206;51.440;6.914;2022-09-20T10:09:58;14.90;1.00
16198;DHT22;8206;51.440;6.914;2022-09-20T10:12:49;14.70;1.00
16198;DHT22;8206;51.440;6.914;2022-09-20T10:15:28;14.60;1.00
16198;DHT22;8206;51.440;6.914;2022-09-20T10:18:06;14.60;1.00
16198;DHT22;8206;51.440;6.914;2022-09-20T10:20:46;14.60;1.00
16198;DHT22;8206;51.440;6.914;2022-09-20T10:23:30;14.60;1.00
16198;DHT22;8206;51.440;6.914;2022-09-20T10:26:17;14.50;1.00
16198;DHT22;8206;51.440;6.914;2022-09-20T10:28:56;14.20;1.00
16198;DHT22;8206;51.440;6.914;2022-09-20T10:31:34;14.00;1.00
16198;DHT22;8206;51.440;6.914;2022-09-20T10:34:19;14.00;1.00
16198;DHT22;8206;51.440;6.914;2022-09-20T10:36:51;14.20;1.00
16198;DHT22;8206;51.440;6.914;2022-09-20T10:39:25;14.70;1.00
16198;DHT22;8206;51.440;6.914;2022-09-20T10:42:03;15.00;1.00
16198;DHT22;8206;51.440;6.914;2022-09-20T10:45:00;15.60;1.00
16198;DHT22;8206;51.440;6.914;2022-09-20T10:47:32;16.20;1.00
16198;DHT22;8206;51.440;6.914;2022-09-20T10:50:03;16.60;1.00
16198;DHT22;8206;51.440;6.914;2022-09-20T10:52:48;16.80;1.00
16198;DHT22;8206;51.440;6.914;2022-09-20T10:55:33;17.00;1.00
16198;DHT22;8206;51.440;6.914;2022-09-20T11:01:10;17.60;1.00
16198;DHT22;8206;51.440;6.914;2022-09-20T11:03:54;17.50;1.00
16198;DHT22;8206;51.440;6.914;2022-09-20T11:06:35;17.60;1.00
16198;DHT22;8206;51.440;6.914;2022-09-20T11:09:08;17.30;1.00
16198;DHT22;8206;51.440;6.914;2022-09-20T11:11:40;17.20;1.00
16198;DHT22;8206;51.440;6.914;2022-09-20T11:14:11;17.00;1.00
16198;DHT22;8206;51.440;6.914;2022-09-20T11:16:43;16.70;1.00
16198;DHT22;8206;51.440;6.914;2022-09-20T11:19:19;16.50;1.00
16198;DHT22;8206;51.440;6.914;2022-09-20T11:21:50;16.60;1.00
16198;DHT22;8206;51.440;6.914;2022-09-20T11:24:26;16.70;1.00
16198;DHT22;8206;51.440;6.914;2022-09-20T11:26:59;16.80;1.00
16198;DHT22;8206;51.440;6.914;2022-09-20T11:29:33;17.00;1.00
16198;DHT22;8206;51.440;6.914;2022-09-20T11:32:05;17.10;1.00
16198;DHT22;8206;51.440;6.914;2022-09-20T11:34:38;17.30;1.00
16198;DHT22;8206;51.440;6.914;2022-09-20T11:37:07;17.50;1.00
16198;DHT22;8206;51.440;6.914;2022-09-20T11:39:38;17.30;1.00
16198;DHT22;8206;51.440;6.914;2022-09-20T11:42:14;17.40;1.00
16198;DHT22;8206;51.440;6.914;2022-09-20T11:44:41;17.40;1.00
16198;DHT22;8206;51.440;6.914;2022-09-20T11:47:16;17.40;1.00
16198;DHT22;8206;51.440;6.914;2022-09-20T11:49:58;17.60;1.00
16198;DHT22;8206;51.440;6.914;2022-09-20T11:52:45;17.70;1.00
16198;DHT22;8206;51.440;6.914;2022-09-20T11:55:40;17.50;1.00
16198;DHT22;8206;51.440;6.914;2022-09-20T11:58:11;17.20;1.00
16198;DHT22;8206;51.440;6.914;2022-09-20T12:00:43;17.20;1.00
16198;DHT22;8206;51.440;6.914;2022-09-20T12:03:23;17.20;1.00
16198;DHT22;8206;51.440;6.914;2022-09-20T12:05:56;17.30;1.00
16198;DHT22;8206;51.440;6.914;2022-09-20T12:08:25;17.30;1.00
16198;DHT22;8206;51.440;6.914;2022-09-20T12:10:56;17.20;1.00
16198;DHT22;8206;51.440;6.914;2022-09-20T12:13:26;17.30;1.00
16198;DHT22;8206;51.440;6.914;2022-09-20T12:15:59;17.10;1.00
16198;DHT22;8206;51.440;6.914;2022-09-20T12:18:59;17.10;1.00
16198;DHT22;8206;51.440;6.914;2022-09-20T12:21:27;17.10;1.00
16198;DHT22;8206;51.440;6.914;2022-09-20T12:26:56;17.20;1.00
16198;DHT22;8206;51.440;6.914;2022-09-20T12:29:53;17.10;1.00
16198;DHT22;8206;51.440;6.914;2022-09-20T12:32:40;17.30;1.00
16198;DHT22;8206;51.440;6.914;2022-09-20T12:38:33;17.50;1.00
16198;DHT22;8206;51.440;6.914;2022-09-20T12:41:14;17.60;1.00
16198;DHT22;8206;51.440;6.914;2022-09-20T12:44:04;17.70;1.00
16198;DHT22;8206;51.440;6.914;2022-09-20T12:46:36;17.70;1.00
16198;DHT22;8206;51.440;6.914;2022-09-20T12:52:28;17.70;1.00
16198;DHT22;8206;51.440;6.914;2022-09-20T12:55:33;17.50;1.00
16198;DHT22;8206;51.440;6.914;2022-09-20T12:58:05;17.60;1.00
16198;DHT22;8206;51.440;6.914;2022-09-20T13:00:37;17.70;1.00
16198;DHT22;8206;51.440;6.914;2022-09-20T13:03:23;17.80;1.00
16198;DHT22;8206;51.440;6.914;2022-09-20T13:06:21;17.90;1.00
16198;DHT22;8206;51.440;6.914;2022-09-20T13:08:53;17.60;1.00
16198;DHT22;8206;51.440;6.914;2022-09-20T13:11:23;17.50;1.00
16198;DHT22;8206;51.440;6.914;2022-09-20T13:13:54;17.30;1.00
16198;DHT22;8206;51.440;6.914;2022-09-20T13:16:25;17.10;1.00
16198;DHT22;8206;51.440;6.914;2022-09-20T13:18:58;17.20;1.00
16198;DHT22;8206;51.440;6.914;2022-09-20T13:21:26;17.20;1.00
16198;DHT22;8206;51.440;6.914;2022-09-20T13:23:53;17.30;1.00
16198;DHT22;8206;51.440;6.914;2022-09-20T13:26:24;17.20;1.00
16198;DHT22;8206;51.440;6.914;2022-09-20T13:28:54;17.30;1.00
16198;DHT22;8206;51.440;6.914;2022-09-20T13:31:23;17.70;1.00
16198;DHT22;8206;51.440;6.914;2022-09-20T13:33:51;17.80;1.00
16198;DHT22;8206;51.440;6.914;2022-09-20T13:36:24;17.80;1.00
16198;DHT22;8206;51.440;6.914;2022-09-20T13:38:52;17.60;1.00
16198;DHT22;8206;51.440;6.914;2022-09-20T13:41:20;17.50;1.00
16198;DHT22;8206;51.440;6.914;2022-09-20T13:43:48;17.70;1.00
16198;DHT22;8206;51.440;6.914;2022-09-20T13:46:21;17.70;1.00
16198;DHT22;8206;51.440;6.914;2022-09-20T13:48:52;17.50;1.00
16198;DHT22;8206;51.440;6.914;2022-09-20T13:51:23;17.30;1.00
16198;DHT22;8206;51.440;6.914;2022-09-20T13:53:50;17.10;1.00
16198;DHT22;8206;51.440;6.914;2022-09-20T13:56:20;16.90;1.00
16198;DHT22;8206;51.440;6.914;2022-09-20T13:58:48;16.60;1.00
16198;DHT22;8206;51.440;6.914;2022-09-20T14:01:25;16.60;1.00
16198;DHT22;8206;51.440;6.914;2022-09-20T14:03:54;16.50;1.00
16198;DHT22;8206;51.440;6.914;2022-09-20T14:06:25;16.40;1.00
16198;DHT22;8206;51.440;6.914;2022-09-20T14:08:54;16.30;1.00
16198;DHT22;8206;51.440;6.914;2022-09-20T14:11:23;16.20;1.00
16198;DHT22;8206;51.440;6.914;2022-09-20T14:13:53;16.20;1.00
16198;DHT22;8206;51.440;6.914;2022-09-20T14:16:23;16.10;1.00
16198;DHT22;8206;51.440;6.914;2022-09-20T14:18:53;16.00;1.00
16198;DHT22;8206;51.440;6.914;2022-09-20T14:21:25;15.90;1.00
16198;DHT22;8206;51.440;6.914;2022-09-20T14:23:53;15.80;1.00
16198;DHT22;8206;51.440;6.914;2022-09-20T14:26:24;15.80;1.00
16198;DHT22;8206;51.440;6.914;2022-09-20T14:28:52;15.60;1.00
16198;DHT22;8206;51.440;6.914;2022-09-20T14:31:22;15.50;1.00
16198;DHT22;8206;51.440;6.914;2022-09-20T14:33:52;15.50;1.00
16198;DHT22;8206;51.440;6.914;2022-09-20T14:36:21;15.40;1.00
16198;DHT22;8206;51.440;6.914;2022-09-20T14:38:52;15.30;1.00
16198;DHT22;8206;51.440;6.914;2022-09-20T14:41:25;15.30;1.00
16198;DHT22;8206;51.440;6.914;2022-09-20T14:43:54;15.20;1.00
16198;DHT22;8206;51.440;6.914;2022-09-20T14:46:28;15.20;1.00
16198;DHT22;8206;51.440;6.914;2022-09-20T14:49:21;15.10;1.00
16198;DHT22;8206;51.440;6.914;2022-09-20T14:55:00;15.10;1.00
16198;DHT22;8206;51.440;6.914;2022-09-20T14:57:29;15.30;1.00
16198;DHT22;8206;51.440;6.914;2022-09-20T14:59:56;15.30;1.00
16198;DHT22;8206;51.440;6.914;2022-09-20T15:02:24;15.50;1.00
16198;DHT22;8206;51.440;6.914;2022-09-20T15:04:53;15.60;1.00
16198;DHT22;8206;51.440;6.914;2022-09-20T15:07:21;15.70;1.00
16198;DHT22;8206;51.440;6.914;2022-09-20T15:09:48;15.80;1.00
16198;DHT22;8206;51.440;6.914;2022-09-20T15:12:17;15.80;1.00
16198;DHT22;8206;51.440;6.914;2022-09-20T15:14:45;15.90;1.00
16198;DHT22;8206;51.440;6.914;2022-09-20T15:17:14;15.80;1.00
16198;DHT22;8206;51.440;6.914;2022-09-20T15:19:41;15.90;1.00
16198;DHT22;8206;51.440;6.914;2022-09-20T15:22:09;15.90;1.00
16198;DHT22;8206;51.440;6.914;2022-09-20T15:24:36;15.90;1.00
16198;DHT22;8206;51.440;6.914;2022-09-20T15:27:03;15.80;1.00
16198;DHT22;8206;51.440;6.914;2022-09-20T15:29:31;15.80;1.00
16198;DHT22;8206;51.440;6.914;2022-09-20T15:31:58;15.80;1.00
16198;DHT22;8206;51.440;6.914;2022-09-20T15:34:25;15.90;1.00
16198;DHT22;8206;51.440;6.914;2022-09-20T15:36:53;15.80;1.00
16198;DHT22;8206;51.440;6.914;2022-09-20T15:39:19;15.90;1.00
16198;DHT22;8206;51.440;6.914;2022-09-20T15:41:46;15.90;1.00
16198;DHT22;8206;51.440;6.914;2022-09-20T15:44:14;15.90;1.00
16198;DHT22;8206;51.440;6.914;2022-09-20T15:46:43;15.90;1.00
16198;DHT22;8206;51.440;6.914;2022-09-20T15:49:11;15.80;1.00
16198;DHT22;8206;51.440;6.914;2022-09-20T15:51:38;15.80;1.00
16198;DHT22;8206;51.440;6.914;2022-09-20T15:54:05;15.80;1.00
16198;DHT22;8206;51.440;6.914;2022-09-20T15:56:34;15.80;1.00
16198;DHT22;8206;51.440;6.914;2022-09-20T15:59:03;15.70;1.00
16198;DHT22;8206;51.440;6.914;2022-09-20T16:01:31;15.70;1.00
16198;DHT22;8206;51.440;6.914;2022-09-20T16:06:31;15.70;1.00
16198;DHT22;8206;51.440;6.914;2022-09-20T16:08:58;15.50;1.00
16198;DHT22;8206;51.440;6.914;2022-09-20T16:11:24;15.40;1.00
16198;DHT22;8206;51.440;6.914;2022-09-20T16:13:53;15.40;1.00
16198;DHT22;8206;51.440;6.914;2022-09-20T16:16:20;15.30;1.00
16198;DHT22;8206;51.440;6.914;2022-09-20T16:18:47;15.30;1.00
16198;DHT22;8206;51.440;6.914;2022-09-20T16:21:33;15.30;1.00
16198;DHT22;8206;51.440;6.914;2022-09-20T16:24:00;15.20;1.00
16198;DHT22;8206;51.440;6.914;2022-09-20T16:26:28;15.10;1.00
16198;DHT22;8206;51.440;6.914;2022-09-20T16:28:56;15.00;1.00
16198;DHT22;8206;51.440;6.914;2022-09-20T16:31:30;15.00;1.00
16198;DHT22;8206;51.440;6.914;2022-09-20T16:33:59;14.80;1.00
16198;DHT22;8206;51.440;6.914;2022-09-20T16:36:26;14.80;1.00
16198;DHT22;8206;51.440;6.914;2022-09-20T16:38:54;14.80;1.00
16198;DHT22;8206;51.440;6.914;2022-09-20T16:41:22;14.80;1.00
16198;DHT22;8206;51.440;6.914;2022-09-20T16:43:49;14.90;1.00
16198;DHT22;8206;51.440;6.914;2022-09-20T16:46:16;14.80;1.00
16198;DHT22;8206;51.440;6.914;2022-09-20T16:48:45;14.80;1.00
16198;DHT22;8206;51.440;6.914;2022-09-20T16:51:12;14.70;1.00
16198;DHT22;8206;51.440;6.914;2022-09-20T16:53:39;14.70;1.00
16198;DHT22;8206;51.440;6.914;2022-09-20T16:56:07;14.60;1.00
16198;DHT22;8206;51.440;6.914;2022-09-20T16:58:39;14.60;1.00
16198;DHT22;8206;51.440;6.914;2022-09-20T17:01:07;14.50;1.00
16198;DHT22;8206;51.440;6.914;2022-09-20T17:03:34;14.50;1.00
16198;DHT22;8206;51.440;6.914;2022-09-20T17:06:01;14.50;1.00
16198;DHT22;8206;51.440;6.914;2022-09-20T17:08:28;14.50;1.00
16198;DHT22;8206;51.440;6.914;2022-09-20T17:10:58;14.50;1.00
16198;DHT22;8206;51.440;6.914;2022-09-20T17:13:29;14.40;1.00
16198;DHT22;8206;51.440;6.914;2022-09-20T17:16:01;14.30;1.00
16198;DHT22;8206;51.440;6.914;2022-09-20T17:18:28;14.20;1.00
16198;DHT22;8206;51.440;6.914;2022-09-20T17:20:55;14.10;1.00
16198;DHT22;8206;51.440;6.914;2022-09-20T17:23:22;13.90;1.00